This is the latest recevied weather packets stored in our database for station/object WC4PEM-9. If no packets are shown the sender has not sent any weather packets the latest 10 day(s).
| Time | Temp. | Humidity | Pressure | Rain* | Wind** | Luminosity | Snow |
|---|---|---|---|---|---|---|---|
| 1777933710 | 26.11° C | 62% | 1014 hPa | 0 mm | - | - | - |
| 1777933410 | 26.11° C | 61% | 1013.8 hPa | 0 mm | - | - | - |
| 1777933260 | 25.56° C | 61% | 1013.9 hPa | 0 mm | - | - | - |
| 1777933110 | 25.56° C | 61% | 1013.9 hPa | 0 mm | - | - | - |
| 1777932810 | 25.56° C | 60% | 1013.7 hPa | 0 mm | - | - | - |
| 1777932660 | 25.56° C | 61% | 1013.8 hPa | 0 mm | - | - | - |
| 1777932510 | 25.56° C | 61% | 1013.8 hPa | 0 mm | - | - | - |
| 1777932210 | 26.11° C | 61% | 1013.9 hPa | 0 mm | - | - | - |
| 1777931910 | 26.11° C | 60% | 1013.9 hPa | 0 mm | - | - | - |
| 1777931703 | 26.67° C | 59% | 1013.9 hPa | 0 mm | - | - | - |
| 1777931610 | 26.67° C | 59% | 1013.9 hPa | 0 mm | - | - | - |
| 1777931430 | 27.22° C | 58% | 1014.1 hPa | 0 mm | - | - | - |
| 1777931310 | 27.22° C | 58% | 1014.1 hPa | 0 mm | - | - | - |
| 1777931010 | 27.22° C | 56% | 1014 hPa | 0 mm | - | - | - |
| 1777930710 | 27.78° C | 56% | 1013.9 hPa | 0 mm | - | - | - |
| 1777930501 | 27.22° C | 58% | 1013.9 hPa | 0 mm | - | - | - |
| 1777930410 | 27.22° C | 58% | 1013.9 hPa | 0 mm | - | - | - |
| 1777930209 | 27.22° C | 58% | 1013.9 hPa | 0 mm | - | - | - |
| 1777930110 | 27.22° C | 58% | 1013.9 hPa | 0 mm | - | - | - |
| 1777929810 | 26.67° C | 60% | 1013.9 hPa | 0 mm | - | - | - |
| 1777929510 | 27.22° C | 57% | 1013.7 hPa | 0 mm | - | - | - |
| 1777929362 | 27.22° C | 56% | 1013.7 hPa | 0 mm | - | - | - |
| 1777929210 | 27.22° C | 56% | 1013.7 hPa | 0 mm | - | - | - |
| 1777928910 | 27.78° C | 56% | 1013.8 hPa | 0 mm | - | - | - |
| 1777928610 | 27.78° C | 54% | 1013.8 hPa | 0 mm | - | - | - |
* Rain latest hour (hover to see other rain measurements)
** Current wind speed in m/s (hover to see current wind gust speed)